createdAt,value
2016-03-06T00:00:15.651Z,4
2016-03-06T00:01:47.673Z,3.99
2016-03-06T00:02:31.581Z,4.02
2016-03-06T00:03:50.787Z,4
2016-03-06T00:04:31.649Z,3.91
2016-03-06T00:05:31.651Z,3.95
2016-03-06T00:06:38.675Z,3.82
2016-03-06T00:07:38.537Z,3.78
2016-03-06T00:08:31.758Z,3.84
2016-03-06T00:09:50.902Z,3.95
2016-03-06T00:10:33.106Z,3.92
2016-03-06T00:11:57.393Z,3.78
2016-03-06T00:12:44.506Z,3.81
2016-03-06T00:13:57.540Z,3.78
2016-03-06T00:15:31.935Z,3.85
2016-03-06T00:16:10.248Z,3.81
2016-03-06T00:17:19.782Z,3.86
2016-03-06T00:18:29.318Z,3.74
2016-03-06T00:19:22.881Z,3.76
2016-03-06T00:20:35.543Z,3.86
2016-03-06T00:21:09.887Z,3.73
2016-03-06T00:22:10.014Z,3.77
2016-03-06T00:23:22.673Z,3.66
2016-03-06T00:24:10.519Z,3.78
2016-03-06T00:25:29.165Z,3.77
2016-03-06T00:26:41.278Z,3.61
2016-03-06T00:28:10.014Z,3.63
2016-03-06T00:29:19.565Z,3.67
2016-03-06T00:30:51.507Z,3.63
2016-03-06T00:31:35.369Z,3.66
2016-03-06T00:32:54.606Z,3.64
2016-03-06T00:34:32.472Z,3.63
2016-03-06T00:35:04.300Z,3.71
2016-03-06T00:37:17.133Z,3.59
2016-03-06T00:39:28.875Z,3.59
2016-03-06T00:40:29.143Z,3.59
2016-03-06T00:42:44.243Z,3.56
2016-03-06T00:43:44.323Z,3.61
2016-03-06T00:45:44.376Z,3.56
2016-03-06T00:45:56.954Z,3.56
2016-03-06T00:46:56.972Z,3.58
2016-03-06T00:47:56.959Z,3.59
2016-03-06T00:50:12.229Z,3.46
2016-03-06T00:51:31.485Z,3.4
2016-03-06T00:52:38.160Z,3.43
2016-03-06T00:55:24.542Z,3.37
2016-03-06T00:55:53.245Z,3.41
2016-03-06T00:56:53.281Z,3.34
2016-03-06T00:58:09.079Z,3.36
2016-03-06T00:59:02.817Z,3.33
2016-03-06T01:00:15.584Z,3.34
2016-03-06T01:01:15.745Z,3.34
2016-03-06T01:02:28.672Z,3.4
2016-03-06T01:03:22.172Z,3.43
2016-03-06T01:04:31.723Z,3.37
2016-03-06T01:05:15.098Z,3.36
2016-03-06T01:06:34.854Z,3.36
2016-03-06T01:07:44.419Z,3.4
2016-03-06T01:08:47.500Z,3.4
2016-03-06T01:09:28.330Z,3.34
2016-03-06T01:11:43.669Z,3.33
2016-03-06T01:12:43.672Z,3.4
2016-03-06T01:13:49.955Z,3.37
2016-03-06T01:14:53.912Z,3.37
2016-03-06T01:17:09.104Z,3.4
2016-03-06T01:18:09.076Z,3.4
2016-03-06T01:19:21.829Z,3.27
2016-03-06T01:20:09.800Z,3.46
2016-03-06T01:21:34.743Z,3.34
2016-03-06T01:22:18.774Z,3.3
2016-03-06T01:24:15.623Z,3.43
2016-03-06T01:25:25.237Z,3.29
2016-03-06T01:26:09.128Z,3.27
2016-03-06T01:26:37.803Z,3.29
2016-03-06T01:28:53.715Z,3.27
2016-03-06T01:29:53.639Z,3.33
2016-03-06T01:30:59.939Z,3.26
2016-03-06T01:32:01.347Z,3.3
2016-03-06T01:33:06.413Z,3.24
2016-03-06T01:35:53.764Z,3.29
2016-03-06T01:36:22.483Z,3.29
2016-03-06T01:39:03.522Z,3.29
2016-03-06T01:39:37.697Z,3.24
2016-03-06T01:41:47.312Z,3.22
2016-03-06T01:43:18.627Z,3.16
2016-03-06T01:44:02.490Z,3.11
2016-03-06T01:45:59.510Z,3.24
2016-03-06T01:46:12.635Z,3.22
2016-03-06T01:48:16.593Z,3.16
2016-03-06T01:50:19.834Z,3.21
2016-03-06T01:50:58.149Z,3.18
2016-03-06T01:52:55.123Z,3.19
2016-03-06T01:53:07.810Z,3.22
2016-03-06T01:55:22.956Z,3.09
2016-03-06T01:56:22.959Z,3.18
2016-03-06T01:57:49.261Z,3.12
2016-03-06T01:58:40.326Z,3.13
2016-03-06T02:01:53.319Z,3.08
2016-03-06T02:02:37.306Z,3.12
2016-03-06T02:05:12.389Z,3.11
2016-03-06T02:06:05.799Z,3.11
2016-03-06T02:07:18.817Z,3.05
2016-03-06T02:08:15.444Z,3.08
2016-03-06T02:09:02.775Z,3.05
2016-03-06T02:10:21.902Z,3.06
2016-03-06T02:11:05.749Z,2.91
2016-03-06T02:12:24.989Z,2.98
2016-03-06T02:13:05.771Z,3.01
2016-03-06T02:15:21.026Z,2.83
2016-03-06T02:17:24.157Z,2.9
2016-03-06T02:18:24.159Z,2.95
2016-03-06T02:19:36.945Z,2.98
2016-03-06T02:20:31.057Z,2.97
2016-03-06T02:21:49.888Z,2.93
2016-03-06T02:22:46.531Z,3.03
2016-03-06T02:23:46.503Z,2.97
2016-03-06T02:24:59.475Z,2.88
2016-03-06T02:25:56.117Z,2.94
2016-03-06T02:27:02.574Z,3.01
2016-03-06T02:28:12.139Z,2.97
2016-03-06T02:29:12.142Z,3
2016-03-06T02:30:24.912Z,3.01
2016-03-06T02:31:24.915Z,3.03
2016-03-06T02:32:37.872Z,3.05
2016-03-06T02:33:24.952Z,3.13
2016-03-06T02:35:14.845Z,3
2016-03-06T02:35:40.207Z,3.06
2016-03-06T02:36:27.476Z,3.06
2016-03-06T02:37:46.666Z,3.06
2016-03-06T02:38:36.825Z,3.03
2016-03-06T02:39:56.265Z,3.05
2016-03-06T02:40:49.783Z,3.05
2016-03-06T02:41:33.645Z,3.05
2016-03-06T02:42:33.866Z,3
2016-03-06T02:43:33.697Z,3.05
2016-03-06T02:44:33.888Z,2.98
2016-03-06T02:45:46.438Z,3.01
2016-03-06T02:46:39.987Z,3
2016-03-06T02:47:52.927Z,3
2016-03-06T02:48:33.758Z,2.95
2016-03-06T02:50:49.076Z,3
2016-03-06T02:51:49.062Z,2.97
2016-03-06T02:53:14.753Z,2.91
2016-03-06T02:53:58.631Z,2.95
2016-03-06T02:54:58.727Z,2.98
2016-03-06T02:55:58.698Z,2.97
2016-03-06T02:57:04.951Z,2.95
2016-03-06T02:57:58.703Z,2.98
2016-03-06T02:59:04.956Z,2.98
2016-03-06T03:00:04.990Z,2.98
2016-03-06T03:00:58.775Z,3.01
2016-03-06T03:02:00.183Z,3
2016-03-06T03:03:17.999Z,3.05
2016-03-06T03:04:11.501Z,3.03
2016-03-06T03:05:30.116Z,3
2016-03-06T03:05:58.928Z,3.03
2016-03-06T03:06:58.838Z,3.05
2016-03-06T03:08:06.527Z,3.06
2016-03-06T03:08:58.859Z,3.03
2016-03-06T03:10:13.017Z,3.01
2016-03-06T03:11:05.177Z,3.03
2016-03-06T03:11:58.976Z,3.06
2016-03-06T03:13:18.135Z,3.01
2016-03-06T03:13:58.981Z,3.01
2016-03-06T03:14:58.953Z,3.03
2016-03-06T03:16:30.271Z,3.08
2016-03-06T03:17:11.521Z,3.05
2016-03-06T03:18:08.507Z,3.03
2016-03-06T03:19:27.716Z,2.98
2016-03-06T03:20:11.623Z,3.01
2016-03-06T03:21:24.376Z,3.03
2016-03-06T03:22:11.628Z,2.95
2016-03-06T03:23:31.070Z,2.93
2016-03-06T03:24:12.164Z,2.98
2016-03-06T03:25:37.373Z,2.94
2016-03-06T03:26:21.232Z,3.01
2016-03-06T03:27:40.456Z,2.88
2016-03-06T03:28:22.097Z,2.9
2016-03-06T03:29:46.961Z,2.9
2016-03-06T03:30:30.934Z,2.97
2016-03-06T03:31:30.936Z,2.87
2016-03-06T03:32:37.220Z,2.93
2016-03-06T03:33:38.675Z,2.85
2016-03-06T03:34:50.273Z,2.88
2016-03-06T03:35:56.681Z,2.87
2016-03-06T03:36:31.012Z,2.77
2016-03-06T03:39:09.297Z,2.72
2016-03-06T03:40:06.020Z,2.82
2016-03-06T03:41:25.213Z,2.83
2016-03-06T03:42:07.431Z,2.77
2016-03-06T03:44:08.612Z,2.62
2016-03-06T03:44:49.938Z,2.73
2016-03-06T03:45:24.235Z,2.72
2016-03-06T03:46:24.216Z,2.69
2016-03-06T03:47:24.869Z,2.69
2016-03-06T03:48:24.241Z,2.68
2016-03-06T03:49:24.833Z,2.7
2016-03-06T03:50:37.021Z,2.62
2016-03-06T03:51:37.007Z,2.57
2016-03-06T03:52:49.976Z,2.58
2016-03-06T03:53:46.602Z,2.62
2016-03-06T03:54:33.855Z,2.59
2016-03-06T03:55:53.075Z,2.5
2016-03-06T03:56:33.875Z,2.58
2016-03-06T03:58:47.068Z,2.57
2016-03-06T03:59:44.054Z,2.47
2016-03-06T04:00:53.494Z,2.5
2016-03-06T04:01:45.465Z,2.5
2016-03-06T04:03:44.126Z,2.41
2016-03-06T04:04:02.954Z,2.44
2016-03-06T04:05:02.987Z,2.41
2016-03-06T04:06:10.647Z,2.47
2016-03-06T04:07:03.009Z,2.47
2016-03-06T04:08:02.995Z,2.5
2016-03-06T04:09:15.921Z,2.5
2016-03-06T04:10:03.235Z,2.58
2016-03-06T04:11:22.285Z,2.52
2016-03-06T04:12:03.085Z,2.54
2016-03-06T04:13:03.071Z,2.46
2016-03-06T04:14:09.309Z,2.64
2016-03-06T04:15:04.498Z,2.64
2016-03-06T04:16:15.876Z,2.7
2016-03-06T04:17:34.445Z,2.76
2016-03-06T04:18:24.601Z,2.73
2016-03-06T04:20:28.078Z,2.73
2016-03-06T04:20:40.625Z,2.76
2016-03-06T04:21:40.627Z,2.7
2016-03-06T04:22:47.239Z,2.7
2016-03-06T04:23:40.664Z,2.72
2016-03-06T04:24:53.275Z,2.73
2016-03-06T04:25:46.950Z,2.73
2016-03-06T04:26:40.547Z,2.7
2016-03-06T04:27:53.487Z,2.79
2016-03-06T04:28:40.927Z,2.82
2016-03-06T04:30:00.008Z,2.75
2016-03-06T04:30:46.901Z,2.82
2016-03-06T04:32:56.141Z,2.75
2016-03-06T04:33:21.454Z,2.79
2016-03-06T04:34:08.706Z,2.8
2016-03-06T04:35:27.962Z,2.77
2016-03-06T04:36:15.227Z,2.8
2016-03-06T04:37:34.435Z,2.88
2016-03-06T04:38:27.985Z,2.87
2016-03-06T04:39:43.176Z,2.87
2016-03-06T04:40:28.662Z,2.91
2016-03-06T04:41:27.037Z,2.9
2016-03-06T04:42:39.824Z,2.93
2016-03-06T04:43:39.796Z,2.91
2016-03-06T04:44:27.124Z,2.94
2016-03-06T04:45:27.095Z,2.95
2016-03-06T04:46:33.413Z,2.95
2016-03-06T04:47:33.415Z,3.01
2016-03-06T04:48:46.356Z,3.03
2016-03-06T04:49:28.609Z,3.06
2016-03-06T04:50:52.845Z,3.06
2016-03-06T04:51:27.033Z,3.03
2016-03-06T04:52:54.320Z,3
2016-03-06T04:53:33.198Z,3
2016-03-06T04:54:32.607Z,3.09
2016-03-06T04:55:32.625Z,3.13
2016-03-06T04:56:33.257Z,3.13
2016-03-06T04:57:45.369Z,3.15
2016-03-06T04:58:32.669Z,3.13
2016-03-06T04:59:32.672Z,3.12
2016-03-06T05:00:32.971Z,3.12
2016-03-06T05:01:32.724Z,3.08
2016-03-06T05:02:38.976Z,3.01
2016-03-06T05:03:32.746Z,3.05
2016-03-06T05:04:45.529Z,3.11
2016-03-06T05:05:32.610Z,3
2016-03-06T05:06:52.003Z,3.03
2016-03-06T05:07:32.787Z,3.01
2016-03-06T05:09:47.979Z,3.05
2016-03-06T05:10:47.998Z,3
2016-03-06T05:11:48.032Z,2.95
2016-03-06T05:12:48.034Z,2.98
2016-03-06T05:13:48.068Z,2.94
2016-03-06T05:15:00.775Z,2.88
2016-03-06T05:15:48.059Z,2.87
2016-03-06T05:17:07.264Z,2.88
2016-03-06T05:18:16.954Z,2.83
2016-03-06T05:19:25.676Z,2.82
2016-03-06T05:20:35.197Z,2.87
2016-03-06T05:21:19.166Z,2.72
2016-03-06T05:22:44.796Z,2.72
2016-03-06T05:23:54.658Z,2.76
2016-03-06T05:25:03.989Z,2.62
2016-03-06T05:26:01.398Z,2.69
2016-03-06T05:27:32.763Z,2.51
2016-03-06T05:28:10.981Z,2.54
2016-03-06T05:29:10.968Z,2.47
2016-03-06T05:30:10.987Z,2.44
2016-03-06T05:31:10.318Z,2.36
2016-03-06T05:32:30.338Z,2.19
2016-03-06T05:33:11.244Z,2.18
2016-03-06T05:34:36.719Z,1.98
2016-03-06T05:35:11.219Z,2.07
2016-03-06T05:36:42.380Z,2
2016-03-06T05:37:11.084Z,2.07
2016-03-06T05:38:43.824Z,2.03
2016-03-06T05:39:17.043Z,2
2016-03-06T05:40:15.607Z,1.98
2016-03-06T05:41:15.625Z,2
2016-03-06T05:43:19.662Z,1.92
2016-03-06T05:43:57.962Z,1.97
2016-03-06T05:44:32.246Z,1.89
2016-03-06T05:46:04.170Z,1.82
2016-03-06T05:47:13.720Z,1.95
2016-03-06T05:47:48.051Z,1.97
2016-03-06T05:49:50.697Z,1.92
2016-03-06T05:50:23.884Z,1.93
2016-03-06T05:51:04.684Z,1.79
2016-03-06T05:53:07.314Z,1.78
2016-03-06T05:53:40.505Z,1.71
2016-03-06T05:54:21.301Z,1.75
2016-03-06T05:55:46.994Z,1.64
2016-03-06T05:56:56.559Z,1.66
2016-03-06T05:57:50.124Z,1.58
2016-03-06T05:59:02.236Z,1.6
2016-03-06T06:00:11.599Z,1.43
2016-03-06T06:00:46.241Z,1.4
2016-03-06T06:02:48.763Z,1.36
2016-03-06T06:03:20.560Z,1.38
2016-03-06T06:04:01.437Z,1.32
2016-03-06T06:05:59.818Z,1.24
2016-03-06T06:07:02.898Z,1.25
2016-03-06T06:08:12.449Z,1.21
2016-03-06T06:09:22.013Z,1.3
2016-03-06T06:09:53.782Z,1.34
2016-03-06T06:11:03.332Z,1.36
2016-03-06T06:12:12.912Z,1.3
2016-03-06T06:13:22.462Z,1.39
2016-03-06T06:14:32.107Z,1.43
2016-03-06T06:15:41.656Z,1.43
2016-03-06T06:16:51.395Z,1.38
2016-03-06T06:18:00.944Z,1.43
2016-03-06T06:18:35.290Z,1.46
2016-03-06T06:19:35.136Z,1.45
2016-03-06T06:20:35.295Z,1.58
2016-03-06T06:21:48.064Z,1.53
2016-03-06T06:22:41.598Z,1.57
2016-03-06T06:23:54.538Z,1.6
2016-03-06T06:25:00.509Z,1.67
2016-03-06T06:25:38.419Z,1.76
2016-03-06T06:27:09.733Z,1.68
2016-03-06T06:27:47.987Z,1.78
2016-03-06T06:30:03.132Z,1.7
2016-03-06T06:31:03.197Z,1.75
2016-03-06T06:33:05.781Z,1.7
2016-03-06T06:33:37.533Z,1.75
2016-03-06T06:34:18.393Z,1.71
2016-03-06T06:36:21.570Z,1.84
2016-03-06T06:36:59.824Z,1.79
2016-03-06T06:37:34.169Z,1.88
2016-03-06T06:39:36.785Z,1.89
2016-03-06T06:40:08.566Z,1.92
2016-03-06T06:40:49.552Z,1.92
2016-03-06T06:43:04.667Z,1.98
2016-03-06T06:44:04.685Z,1.92
2016-03-06T06:45:36.004Z,2.03
2016-03-06T06:46:39.225Z,2.07
2016-03-06T06:47:19.975Z,2.12
2016-03-06T06:49:22.621Z,2.25
2016-03-06T06:50:00.921Z,2.36
2016-03-06T06:50:35.251Z,2.37
2016-03-06T06:52:37.881Z,2.59
2016-03-06T06:53:16.178Z,2.68
2016-03-06T06:53:50.525Z,2.77
2016-03-06T06:55:16.183Z,2.82
2016-03-06T06:55:51.937Z,2.87
2016-03-06T06:57:16.486Z,2.93
2016-03-06T06:58:00.427Z,2.97
2016-03-06T06:59:19.632Z,3.05
2016-03-06T07:00:31.731Z,3.06
2016-03-06T07:01:00.435Z,3.06
2016-03-06T07:02:32.377Z,3.16
2016-03-06T07:03:05.768Z,3.19
2016-03-06T07:04:37.680Z,3.43
2016-03-06T07:05:15.961Z,3.45
2016-03-06T07:06:16.000Z,3.55
2016-03-06T07:07:29.471Z,3.53
2016-03-06T07:08:16.005Z,3.45
2016-03-06T07:09:41.698Z,3.43
2016-03-06T07:10:16.010Z,3.4
2016-03-06T07:11:15.873Z,3.43
2016-03-06T07:12:16.032Z,3.46
2016-03-06T07:13:16.112Z,3.53
2016-03-06T07:14:16.053Z,3.53
2016-03-06T07:15:16.181Z,3.64
2016-03-06T07:16:16.105Z,3.73
2016-03-06T07:17:16.123Z,3.84
2016-03-06T07:18:16.126Z,3.99
2016-03-06T07:19:16.144Z,4.09
2016-03-06T07:20:16.162Z,4.3
2016-03-06T07:21:16.243Z,4.31
2016-03-06T07:22:16.199Z,4.31
2016-03-06T07:23:16.202Z,4.34
2016-03-06T07:24:16.205Z,4.43
2016-03-06T07:25:16.222Z,4.4
2016-03-06T07:26:16.382Z,4.38
2016-03-06T07:27:16.260Z,4.46
2016-03-06T07:28:16.466Z,4.43
2016-03-06T07:29:16.546Z,4.38
2016-03-06T07:30:16.393Z,4.42
2016-03-06T07:31:16.333Z,4.42
2016-03-06T07:32:16.414Z,4.42
2016-03-06T07:33:16.338Z,4.45
2016-03-06T07:34:16.388Z,4.49
2016-03-06T07:35:16.359Z,4.68
2016-03-06T07:36:16.455Z,4.68
2016-03-06T07:37:16.412Z,5.04
2016-03-06T07:38:16.414Z,5.23
2016-03-06T07:39:16.432Z,5.28
2016-03-06T07:40:16.451Z,5.37
2016-03-06T07:41:16.562Z,5.49
2016-03-06T07:42:16.487Z,5.41
2016-03-06T07:43:16.568Z,5.49
2016-03-06T07:44:16.524Z,5.46
2016-03-06T07:45:16.542Z,5.34
2016-03-06T07:46:16.545Z,5.36
2016-03-06T07:47:16.564Z,5.18
2016-03-06T07:48:16.566Z,5.08
2016-03-06T07:49:29.334Z,5.12
2016-03-06T07:50:16.634Z,5.1
2016-03-06T07:51:16.636Z,5.18
2016-03-06T07:52:16.639Z,5.43
2016-03-06T07:53:16.672Z,5.52
2016-03-06T07:54:16.785Z,5.62
2016-03-06T07:55:16.725Z,5.73
2016-03-06T07:56:16.727Z,5.77
2016-03-06T07:57:16.715Z,5.92
2016-03-06T07:58:16.843Z,6.01
2016-03-06T07:59:16.767Z,6.01
2016-03-06T08:00:16.770Z,6.1
2016-03-06T08:01:16.804Z,6.09
2016-03-06T08:02:16.807Z,6.1
2016-03-06T08:03:16.857Z,6.09
2016-03-06T08:04:16.843Z,6.12
2016-03-06T08:05:16.830Z,6.12
2016-03-06T08:06:16.871Z,6.09
2016-03-06T08:07:16.860Z,6.12
2016-03-06T08:08:16.940Z,6.12
2016-03-06T08:09:16.990Z,6.16
2016-03-06T08:10:16.960Z,6.09
2016-03-06T08:11:16.963Z,6.17
2016-03-06T08:12:16.997Z,6.06
2016-03-06T08:13:17.047Z,6.05
2016-03-06T08:14:17.081Z,6.09
2016-03-06T08:15:17.631Z,5.99
2016-03-06T08:16:17.742Z,6.09
2016-03-06T08:17:17.058Z,6.01
2016-03-06T08:18:17.325Z,6.12
2016-03-06T08:19:17.220Z,6.19
2016-03-06T08:20:29.925Z,6.28
2016-03-06T08:21:17.209Z,6.32
2016-03-06T08:22:42.934Z,6.36
2016-03-06T08:23:17.215Z,6.36
2016-03-06T08:24:17.420Z,6.38
2016-03-06T08:25:17.250Z,6.53
2016-03-06T08:26:17.426Z,6.56
2016-03-06T08:27:17.225Z,6.53
2016-03-06T08:28:30.119Z,6.52
2016-03-06T08:29:17.261Z,6.53
2016-03-06T08:30:36.626Z,6.47
2016-03-06T08:31:19.470Z,6.49
2016-03-06T08:32:36.569Z,6.38
2016-03-06T08:33:17.366Z,6.35
2016-03-06T08:34:17.337Z,6.35
2016-03-06T08:35:17.559Z,6.39
2016-03-06T08:36:17.405Z,6.57
2016-03-06T08:37:30.143Z,6.75
2016-03-06T08:38:18.020Z,6.82
2016-03-06T08:39:36.776Z,6.93
2016-03-06T08:40:17.479Z,7.07
2016-03-06T08:41:17.528Z,7.03
2016-03-06T08:42:17.469Z,7.31
2016-03-06T08:43:17.518Z,7.26
2016-03-06T08:44:17.521Z,7.37
2016-03-06T08:45:17.540Z,7.39
2016-03-06T08:46:17.854Z,7.44
2016-03-06T08:47:17.592Z,7.41
2016-03-06T08:48:18.437Z,7.28
2016-03-06T08:49:21.753Z,7.25
2016-03-06T08:50:17.787Z,7.22
2016-03-06T08:51:30.414Z,7.13
2016-03-06T08:52:17.871Z,7.19
2016-03-06T08:53:17.701Z,7.04
2016-03-06T08:54:17.720Z,7.03
2016-03-06T08:55:17.753Z,6.9
2016-03-06T08:56:17.741Z,6.92
2016-03-06T08:57:17.775Z,6.92
2016-03-06T08:58:30.511Z,6.89
2016-03-06T08:59:24.061Z,6.89
2016-03-06T09:00:17.783Z,7.01
2016-03-06T09:01:17.802Z,7.08
2016-03-06T09:02:17.835Z,7.19
2016-03-06T09:03:17.963Z,7.19
2016-03-06T09:04:17.888Z,7.25
2016-03-06T09:05:25.562Z,7.4
2016-03-06T09:06:17.735Z,7.56
2016-03-06T09:07:43.648Z,7.95
2016-03-06T09:08:53.213Z,7.88
2016-03-06T09:09:27.541Z,8.02
2016-03-06T09:10:27.560Z,7.9
2016-03-06T09:11:27.703Z,7.9
2016-03-06T09:12:27.612Z,7.98
2016-03-06T09:13:27.630Z,8.17
2016-03-06T09:14:27.632Z,8.21
2016-03-06T09:15:27.651Z,8.06
2016-03-06T09:16:40.437Z,8.17
2016-03-06T09:17:27.703Z,8.34
2016-03-06T09:18:27.723Z,8.38
2016-03-06T09:19:28.896Z,8.36
2016-03-06T09:20:27.758Z,8.31
2016-03-06T09:21:27.777Z,8.03
2016-03-06T09:22:27.795Z,7.91
2016-03-06T09:23:27.797Z,7.87
2016-03-06T09:24:27.941Z,7.64
2016-03-06T09:25:27.834Z,7.64
2016-03-06T09:26:40.605Z,7.58
2016-03-06T09:27:27.871Z,7.53
2016-03-06T09:28:27.920Z,7.55
2016-03-06T09:29:27.922Z,7.74
2016-03-06T09:30:27.925Z,7.74
2016-03-06T09:31:27.944Z,7.75
2016-03-06T09:32:27.963Z,7.72
2016-03-06T09:33:28.591Z,7.96
2016-03-06T09:34:34.283Z,7.99
2016-03-06T09:35:29.455Z,8.2
2016-03-06T09:36:28.067Z,8.21
2016-03-06T09:37:30.460Z,8.08
2016-03-06T09:38:40.841Z,8.23
2016-03-06T09:39:28.200Z,8.23
2016-03-06T09:40:47.346Z,8.14
2016-03-06T09:41:31.221Z,8.2
2016-03-06T09:42:50.430Z,8.08
2016-03-06T09:43:31.274Z,8.06
2016-03-06T09:45:02.684Z,8.09
2016-03-06T09:45:46.579Z,8.11
2016-03-06T09:47:05.815Z,8.11
2016-03-06T09:47:46.614Z,7.98
2016-03-06T09:48:46.665Z,7.96
2016-03-06T09:49:46.667Z,7.84
2016-03-06T09:50:46.670Z,7.85
2016-03-06T09:51:46.704Z,7.81
2016-03-06T09:52:46.722Z,7.85
2016-03-06T09:53:46.725Z,7.7
2016-03-06T09:54:59.556Z,7.75
2016-03-06T09:55:46.777Z,7.62
2016-03-06T09:57:06.014Z,7.81
2016-03-06T09:57:46.814Z,7.75
2016-03-06T09:59:12.504Z,7.87
2016-03-06T09:59:46.866Z,7.84
2016-03-06T10:01:49.481Z,8.14
2016-03-06T10:02:02.044Z,8.02
2016-03-06T10:03:02.077Z,8.14
2016-03-06T10:04:02.095Z,8.16
2016-03-06T10:05:02.099Z,8.39
2016-03-06T10:06:02.132Z,8.42
2016-03-06T10:07:02.229Z,8.41
2016-03-06T10:08:02.153Z,8.41
2016-03-06T10:09:15.093Z,8.56
2016-03-06T10:10:02.221Z,8.52
2016-03-06T10:11:02.240Z,8.52
2016-03-06T10:12:02.820Z,8.46
2016-03-06T10:13:02.245Z,8.52
2016-03-06T10:14:02.263Z,8.63
2016-03-06T10:15:02.375Z,8.71
2016-03-06T10:16:02.379Z,8.6
2016-03-06T10:17:02.334Z,8.46
2016-03-06T10:18:02.414Z,8.34
2016-03-06T10:19:02.386Z,8.45
2016-03-06T10:20:02.435Z,8.56
2016-03-06T10:21:02.437Z,8.53
2016-03-06T10:22:02.425Z,8.34
2016-03-06T10:23:02.662Z,8.49
2016-03-06T10:24:02.493Z,8.46
2016-03-06T10:25:02.480Z,8.49
2016-03-06T10:26:02.498Z,8.5
2016-03-06T10:27:02.517Z,8.54
2016-03-06T10:28:02.550Z,8.5
2016-03-06T10:29:02.584Z,8.56
2016-03-06T10:30:02.587Z,8.54
2016-03-06T10:31:08.996Z,8.69
2016-03-06T10:32:02.625Z,8.72
2016-03-06T10:33:02.705Z,8.95
2016-03-06T10:34:02.660Z,8.93
2016-03-06T10:35:02.695Z,8.79
2016-03-06T10:36:02.728Z,8.71
2016-03-06T10:37:02.715Z,8.61
2016-03-06T10:38:02.765Z,8.81
2016-03-06T10:39:09.033Z,8.93
2016-03-06T10:40:09.036Z,8.82
2016-03-06T10:41:02.788Z,8.78
2016-03-06T10:42:02.807Z,8.69
2016-03-06T10:43:02.841Z,8.89
2016-03-06T10:44:02.874Z,8.84
2016-03-06T10:45:02.862Z,8.68
2016-03-06T10:46:02.896Z,8.56
2016-03-06T10:47:07.257Z,8.46
2016-03-06T10:48:02.965Z,8.36
2016-03-06T10:49:02.982Z,8.41
2016-03-06T10:50:02.984Z,8.46
2016-03-06T10:51:03.003Z,8.36
2016-03-06T10:52:03.020Z,8.56
2016-03-06T10:53:03.056Z,8.63
2016-03-06T10:54:03.058Z,8.6
2016-03-06T10:55:03.154Z,8.57
2016-03-06T10:56:03.095Z,8.52
2016-03-06T10:57:03.144Z,8.61
2016-03-06T10:58:03.147Z,8.57
2016-03-06T10:59:03.150Z,8.69
2016-03-06T11:00:03.167Z,8.79
2016-03-06T11:01:03.186Z,8.82
2016-03-06T11:02:03.048Z,8.72
2016-03-06T11:03:03.223Z,8.72
2016-03-06T11:04:03.257Z,8.84
2016-03-06T11:05:16.010Z,8.82
2016-03-06T11:06:09.434Z,8.89
2016-03-06T11:07:03.327Z,8.95
2016-03-06T11:08:03.329Z,8.81
2016-03-06T11:09:34.663Z,8.9
2016-03-06T11:10:06.476Z,8.9
2016-03-06T11:11:06.447Z,8.92
2016-03-06T11:12:06.481Z,8.99
2016-03-06T11:13:06.562Z,9.12
2016-03-06T11:14:06.534Z,8.95
2016-03-06T11:15:07.177Z,8.81
2016-03-06T11:16:06.570Z,8.79
2016-03-06T11:17:19.338Z,8.77
2016-03-06T11:18:06.623Z,8.75
2016-03-06T11:19:06.673Z,8.63
2016-03-06T11:20:06.659Z,8.68
2016-03-06T11:21:07.287Z,8.59
2016-03-06T11:22:06.696Z,8.77
2016-03-06T11:23:06.729Z,8.89
2016-03-06T11:24:06.748Z,9.09
2016-03-06T11:25:06.750Z,9.29
2016-03-06T11:26:06.754Z,9.48
2016-03-06T11:27:07.975Z,9.37
2016-03-06T11:28:06.821Z,9.4
2016-03-06T11:29:26.028Z,9.64
2016-03-06T11:30:06.920Z,9.8
2016-03-06T11:31:06.860Z,9.9
2016-03-06T11:32:06.958Z,9.88
2016-03-06T11:33:06.913Z,9.92
2016-03-06T11:34:07.134Z,10.02
2016-03-06T11:35:19.684Z,10.25
2016-03-06T11:36:06.999Z,10.15
2016-03-06T11:37:32.680Z,10
2016-03-06T11:38:16.572Z,10
2016-03-06T11:39:16.576Z,10.09
2016-03-06T11:40:16.609Z,10.1
2016-03-06T11:41:16.627Z,9.97
2016-03-06T11:42:16.647Z,9.82
2016-03-06T11:43:16.680Z,9.72
2016-03-06T11:44:16.698Z,9.69
2016-03-06T11:45:16.717Z,9.72
2016-03-06T11:46:17.250Z,9.63
2016-03-06T11:47:16.847Z,9.73
2016-03-06T11:48:29.522Z,9.95
2016-03-06T11:49:17.477Z,10.09
2016-03-06T11:51:13.826Z,10.38
2016-03-06T11:51:26.482Z,10.49
2016-03-06T11:52:26.454Z,10.51
2016-03-06T11:53:26.551Z,10.58
2016-03-06T11:54:26.491Z,10.59
2016-03-06T11:55:26.509Z,10.51
2016-03-06T11:56:32.777Z,10.53
2016-03-06T11:57:26.546Z,10.48
2016-03-06T11:58:39.895Z,10.46
2016-03-06T11:59:26.598Z,10.65
2016-03-06T12:00:45.806Z,10.87
2016-03-06T12:01:26.650Z,10.8
2016-03-06T12:02:27.263Z,10.77
2016-03-06T12:03:26.656Z,10.59
2016-03-06T12:04:26.799Z,10.36
2016-03-06T12:05:26.723Z,10.21
2016-03-06T12:06:26.835Z,10.24
2016-03-06T12:07:27.136Z,10.23
2016-03-06T12:08:26.778Z,10.17
2016-03-06T12:09:26.828Z,10.3
2016-03-06T12:10:26.878Z,10.31
2016-03-06T12:11:39.586Z,10.33
2016-03-06T12:12:26.867Z,10.21
2016-03-06T12:13:46.091Z,10.13
2016-03-06T12:14:27.091Z,10.07
2016-03-06T12:15:26.922Z,9.94
2016-03-06T12:16:33.206Z,9.82
2016-03-06T12:17:27.021Z,9.9
2016-03-06T12:18:26.977Z,9.85
2016-03-06T12:19:27.088Z,10.02
2016-03-06T12:20:27.013Z,10.1
2016-03-06T12:21:27.063Z,10.31
2016-03-06T12:22:27.082Z,10.3
2016-03-06T12:23:27.084Z,10.3
2016-03-06T12:24:27.088Z,10.43
2016-03-06T12:25:27.105Z,10.42
2016-03-06T12:26:27.154Z,10.39
2016-03-06T12:27:27.174Z,10.45
2016-03-06T12:28:27.223Z,10.34
2016-03-06T12:29:27.209Z,10.34
2016-03-06T12:30:27.212Z,10.18
2016-03-06T12:31:27.247Z,10.06
2016-03-06T12:32:27.281Z,9.97
2016-03-06T12:33:27.314Z,9.84
2016-03-06T12:34:33.583Z,9.77
2016-03-06T12:35:27.164Z,9.64
2016-03-06T12:36:27.369Z,9.42
2016-03-06T12:37:28.794Z,9.39
2016-03-06T12:38:27.594Z,9.26
2016-03-06T12:39:27.597Z,9.13
2016-03-06T12:40:27.442Z,9.11
2016-03-06T12:41:27.570Z,9
2016-03-06T12:42:27.480Z,8.92
2016-03-06T12:43:27.544Z,8.82
2016-03-06T12:44:27.531Z,8.82
2016-03-06T12:45:28.939Z,8.82
2016-03-06T12:46:27.507Z,8.93
2016-03-06T12:47:30.591Z,8.9
2016-03-06T12:48:27.549Z,8.99
2016-03-06T12:49:27.571Z,9.02
2016-03-06T12:50:27.577Z,8.96
2016-03-06T12:51:27.575Z,8.99
2016-03-06T12:52:27.668Z,9.05
2016-03-06T12:53:27.603Z,8.93
2016-03-06T12:54:27.712Z,8.92
2016-03-06T12:55:27.648Z,8.81
2016-03-06T12:56:27.712Z,8.61
2016-03-06T12:57:27.682Z,8.6
2016-03-06T12:58:27.745Z,8.45
2016-03-06T12:59:27.700Z,8.35
2016-03-06T13:00:28.326Z,8.34
2016-03-06T13:01:28.391Z,8.14
2016-03-06T13:02:44.784Z,8.11
2016-03-06T13:03:28.597Z,8.17
2016-03-06T13:04:27.803Z,8.26
2016-03-06T13:05:28.038Z,8.39
2016-03-06T13:06:27.837Z,8.44
2016-03-06T13:07:28.153Z,8.42
2016-03-06T13:08:27.874Z,8.42
2016-03-06T13:09:27.939Z,8.45
2016-03-06T13:10:40.647Z,8.49
2016-03-06T13:11:27.928Z,8.39
2016-03-06T13:12:27.977Z,8.45
2016-03-06T13:13:27.965Z,8.46
2016-03-06T13:14:27.999Z,8.49
2016-03-06T13:15:34.282Z,8.5
2016-03-06T13:16:28.020Z,8.42
2016-03-06T13:17:40.806Z,8.42
2016-03-06T13:18:28.071Z,8.38
2016-03-06T13:19:47.296Z,8.52
2016-03-06T13:20:28.327Z,8.41
2016-03-06T13:21:59.426Z,8.52
2016-03-06T13:22:28.192Z,8.56
2016-03-06T13:23:28.179Z,8.63
2016-03-06T13:24:41.465Z,8.72
2016-03-06T13:25:32.900Z,8.64
2016-03-06T13:26:47.430Z,8.79
2016-03-06T13:27:37.578Z,8.77
2016-03-06T13:28:53.968Z,8.77
2016-03-06T13:30:03.439Z,8.71
2016-03-06T13:30:37.910Z,8.64
2016-03-06T13:33:18.900Z,8.64
2016-03-06T13:33:53.232Z,8.71
2016-03-06T13:36:34.158Z,8.68
2016-03-06T13:37:08.489Z,8.63
2016-03-06T13:38:39.803Z,8.71
2016-03-06T13:39:24.400Z,8.61
2016-03-06T13:41:22.124Z,8.52
2016-03-06T13:42:00.455Z,8.53
2016-03-06T13:42:34.767Z,8.46
2016-03-06T13:44:06.054Z,8.46
2016-03-06T13:45:15.635Z,8.5
2016-03-06T13:45:49.980Z,8.46
2016-03-06T13:48:25.846Z,8.46
2016-03-06T13:49:06.724Z,8.39
2016-03-06T13:50:32.461Z,8.35
2016-03-06T13:51:45.044Z,8.35
2016-03-06T13:53:00.953Z,8.38
2016-03-06T13:54:10.534Z,8.59
2016-03-06T13:54:54.427Z,8.68
2016-03-06T13:58:06.655Z,8.75
2016-03-06T13:59:06.704Z,8.69
2016-03-06T14:00:38.035Z,8.9
2016-03-06T14:01:47.619Z,8.95
2016-03-06T14:02:21.932Z,8.89
2016-03-06T14:03:21.980Z,9.08
2016-03-06T14:04:21.968Z,9.03
2016-03-06T14:06:24.624Z,9.02
2016-03-06T14:07:03.315Z,9
2016-03-06T14:07:37.502Z,9
2016-03-06T14:09:40.054Z,8.89
2016-03-06T14:10:12.495Z,8.82
2016-03-06T14:10:53.325Z,8.75
2016-03-06T14:13:02.799Z,8.56
2016-03-06T14:14:06.256Z,8.66
2016-03-06T14:15:16.023Z,8.54
2016-03-06T14:16:25.620Z,8.34
2016-03-06T14:17:25.669Z,8.31
2016-03-06T14:18:25.687Z,8.11
2016-03-06T14:19:38.394Z,7.84